weather.gov     
National Weather Service

Terminal Aerodrome Forecast
NWS Homepage
This page is being discontinued on March 12, 2014.
The same data is available at this site. Please update your bookmarks.
Thank you, and we apologize for the inconvenience.
Please send an email to SR-SRH.Webmaster@noaa.gov with any concerns.


Current Version
Previous Version:    01  02  03  04  05  06  07  08  09  10  11  12  13  14  15  16  17  18  19  20  21  22  23  24  25  26  27  28  29  30  
   31  32  33  34  35  36  37  38  39  
[Printable]
174
FTUS45 KGJT 230533
TAFEGE
TAF
KEGE 230533Z 2306/2406 20005KT P6SM VCSH SCT060 BKN100
      WS020/22030KT
      TEMPO 2306/2308 20020G30KT P6SM SCT060 OVC100
     FM230900 29012G25KT P6SM VCSH BKN060 OVC100
     FM231200 27010KT P6SM VCSH BKN060
     FM231600 25015G25KT P6SM VCSH BKN060
     FM240200 09005KT P6SM SCT090
      AMD LTD TO CLD VIS AND WIND TIL 231400=




174
FTUS45 KGJT 230533
TAFEGE
TAF
KEGE 230533Z 2306/2406 20005KT P6SM VCSH SCT060 BKN100
      WS020/22030KT
      TEMPO 2306/2308 20020G30KT P6SM SCT060 OVC100
     FM230900 29012G25KT P6SM VCSH BKN060 OVC100
     FM231200 27010KT P6SM VCSH BKN060
     FM231600 25015G25KT P6SM VCSH BKN060
     FM240200 09005KT P6SM SCT090
      AMD LTD TO CLD VIS AND WIND TIL 231400=


U.S. Dept. of Commerce
NOAA National Weather Service
1325 East West Highway
Silver Spring, MD 20910
E-mail: w-nws.webmaster@noaa.gov
Page last modified: May 16, 2007
NATIONAL WEATHER SERVICE: for Safety, for Work, for Fun - FOR LIFE